createdAt,value
2023-06-07T00:01:57.051Z,6.20
2023-06-07T00:04:23.863Z,5.65
2023-06-07T00:06:57.752Z,5.60
2023-06-07T00:09:24.553Z,5.38
2023-06-07T00:11:51.143Z,5.63
2023-06-07T00:14:17.836Z,5.28
2023-06-07T00:16:45.950Z,5.38
2023-06-07T00:19:13.536Z,5.15
2023-06-07T00:21:40.196Z,5.15
2023-06-07T00:24:07.003Z,5.45
2023-06-07T00:26:34.156Z,5.65
2023-06-07T00:29:01.388Z,5.22
2023-06-07T00:31:28.326Z,4.95
2023-06-07T00:33:55.084Z,5.05
2023-06-07T00:36:21.900Z,5.28
2023-06-07T00:38:48.622Z,4.80
2023-06-07T00:41:15.243Z,5.22
2023-06-07T00:43:41.833Z,5.00
2023-06-07T00:46:08.587Z,5.13
2023-06-07T00:48:35.737Z,5.28
2023-06-07T00:51:02.681Z,4.97
2023-06-07T00:53:30.742Z,4.85
2023-06-07T00:55:59.699Z,5.20
2023-06-07T00:58:26.882Z,4.47
2023-06-07T01:00:54.124Z,4.40
2023-06-07T01:03:23.224Z,4.72
2023-06-07T01:05:51.308Z,4.53
2023-06-07T01:08:19.669Z,3.88
2023-06-07T01:10:47.251Z,3.80
2023-06-07T01:13:14.631Z,4.22
2023-06-07T01:15:42.534Z,4.10
2023-06-07T01:18:10.914Z,4.38
2023-06-07T01:20:39.907Z,4.18
2023-06-07T01:23:08.905Z,4.20
2023-06-07T01:25:35.620Z,4.10
2023-06-07T01:28:02.656Z,3.92
2023-06-07T01:30:32.885Z,4.50
2023-06-07T01:33:00.953Z,4.05
2023-06-07T01:35:29.160Z,4.40
2023-06-07T01:37:56.112Z,4.20
2023-06-07T01:40:24.220Z,4.55
2023-06-07T01:42:51.754Z,4.50
2023-06-07T01:45:18.679Z,4.70
2023-06-07T01:47:45.794Z,5.10
2023-06-07T01:50:12.482Z,4.85
2023-06-07T01:52:39.201Z,5.10
2023-06-07T01:55:07.176Z,5.40
2023-06-07T01:58:11.625Z,5.57
2023-06-07T02:00:54.405Z,5.32
2023-06-07T02:03:28.102Z,5.15
2023-06-07T02:05:58.493Z,5.05
2023-06-07T02:08:30.827Z,4.53
2023-06-07T02:10:58.684Z,4.90
2023-06-07T02:13:27.155Z,4.80
2023-06-07T02:15:53.821Z,4.45
2023-06-07T02:18:20.897Z,4.57
2023-06-07T02:20:48.665Z,4.10
2023-06-07T02:23:15.403Z,4.50
2023-06-07T02:25:42.027Z,4.28
2023-06-07T02:28:09.063Z,4.00
2023-06-07T02:30:36.636Z,4.55
2023-06-07T02:33:03.875Z,4.45
2023-06-07T02:35:30.678Z,4.38
2023-06-07T02:37:57.229Z,4.22
2023-06-07T02:40:23.842Z,4.20
2023-06-07T02:42:50.563Z,4.00
2023-06-07T02:45:17.178Z,4.32
2023-06-07T02:47:44.762Z,4.57
2023-06-07T02:50:12.346Z,4.25
2023-06-07T02:52:39.299Z,4.40
2023-06-07T02:55:08.685Z,4.78
2023-06-07T02:57:36.754Z,4.82
2023-06-07T03:00:09.719Z,4.70
2023-06-07T03:02:45.542Z,4.45
2023-06-07T03:05:13.898Z,4.93
2023-06-07T03:07:42.065Z,5.10
2023-06-07T03:10:11.045Z,4.90
2023-06-07T03:12:38.179Z,5.10
2023-06-07T03:15:06.727Z,4.55
2023-06-07T03:17:34.112Z,4.75
2023-06-07T03:20:02.216Z,4.80
2023-06-07T03:22:31.523Z,4.90
2023-06-07T03:25:00.917Z,4.68
2023-06-07T03:27:29.013Z,4.35
2023-06-07T03:30:01.485Z,4.65
2023-06-07T03:32:29.408Z,4.50
2023-06-07T03:34:56.171Z,4.47
2023-06-07T03:37:23.890Z,4.45
2023-06-07T03:39:50.599Z,5.10
2023-06-07T03:42:17.217Z,4.30
2023-06-07T03:44:44.347Z,4.38
2023-06-07T03:47:11.206Z,4.35
2023-06-07T03:49:38.159Z,4.50
2023-06-07T03:52:06.581Z,4.55
2023-06-07T03:54:34.523Z,4.60
2023-06-07T03:57:03.050Z,4.30
2023-06-07T03:59:32.630Z,4.60
2023-06-07T04:02:01.756Z,4.40
2023-06-07T04:04:29.398Z,4.35
2023-06-07T04:06:59.703Z,4.55
2023-06-07T04:09:27.839Z,4.93
2023-06-07T04:11:56.025Z,5.07
2023-06-07T04:14:25.005Z,5.30
2023-06-07T04:16:52.459Z,4.93
2023-06-07T04:19:20.517Z,4.47
2023-06-07T04:21:48.459Z,4.50
2023-06-07T04:24:17.958Z,4.50
2023-06-07T04:26:46.239Z,4.50
2023-06-07T04:29:14.533Z,4.43
2023-06-07T04:31:43.664Z,4.38
2023-06-07T04:34:13.569Z,4.50
2023-06-07T04:36:41.403Z,4.95
2023-06-07T04:39:15.263Z,4.60
2023-06-07T04:41:46.650Z,4.53
2023-06-07T04:44:29.883Z,4.70
2023-06-07T04:47:12.783Z,5.22
2023-06-07T04:52:09.818Z,5.10
2023-06-07T04:54:38.831Z,5.50
2023-06-07T04:57:12.538Z,5.22
2023-06-07T04:59:46.061Z,5.18
2023-06-07T05:02:20.125Z,5.47
2023-06-07T05:04:48.399Z,5.40
2023-06-07T05:07:16.621Z,5.15
2023-06-07T05:09:48.814Z,5.20
2023-06-07T05:12:18.300Z,5.57
2023-06-07T05:14:46.038Z,4.80
2023-06-07T05:17:20.714Z,5.03
2023-06-07T05:19:51.179Z,5.45
2023-06-07T05:22:18.623Z,4.63
2023-06-07T05:24:45.701Z,5.38
2023-06-07T05:27:12.897Z,4.82
2023-06-07T05:29:40.314Z,4.78
2023-06-07T05:32:09.430Z,4.85
2023-06-07T05:34:36.925Z,5.00
2023-06-07T05:37:06.829Z,4.55
2023-06-07T05:39:34.290Z,4.47
2023-06-07T05:42:01.151Z,4.90
2023-06-07T05:44:29.135Z,4.75
2023-06-07T05:46:57.105Z,4.47
2023-06-07T05:49:24.208Z,4.65
2023-06-07T05:51:51.528Z,4.72
2023-06-07T05:54:19.728Z,4.55
2023-06-07T05:56:47.314Z,4.55
2023-06-07T05:59:14.306Z,4.80
2023-06-07T06:01:41.986Z,4.35
2023-06-07T06:04:10.107Z,4.70
2023-06-07T06:06:37.865Z,4.28
2023-06-07T06:09:06.112Z,4.53
2023-06-07T06:11:33.221Z,4.53
2023-06-07T06:14:00.139Z,4.65
2023-06-07T06:16:26.805Z,4.43
2023-06-07T06:18:53.650Z,4.72
2023-06-07T06:21:20.284Z,4.38
2023-06-07T06:23:46.977Z,4.47
2023-06-07T06:26:13.617Z,4.40
2023-06-07T06:28:40.248Z,4.68
2023-06-07T06:31:08.103Z,4.60
2023-06-07T06:33:34.898Z,4.55
2023-06-07T06:36:01.853Z,5.15
2023-06-07T06:38:28.519Z,4.90
2023-06-07T06:40:55.116Z,5.30
2023-06-07T06:43:22.116Z,5.30
2023-06-07T06:45:52.365Z,5.50
2023-06-07T06:48:19.072Z,5.40
2023-06-07T06:50:48.217Z,5.40
2023-06-07T06:53:14.925Z,5.90
2023-06-07T06:55:41.695Z,5.50
2023-06-07T06:58:08.273Z,5.20
2023-06-07T07:00:36.917Z,5.93
2023-06-07T07:03:04.112Z,5.82
2023-06-07T07:05:31.080Z,5.82
2023-06-07T07:07:58.126Z,5.70
2023-06-07T07:10:25.130Z,5.50
2023-06-07T07:12:51.724Z,6.07
2023-06-07T07:15:18.415Z,5.65
2023-06-07T07:17:48.013Z,5.55
2023-06-07T07:20:15.811Z,5.50
2023-06-07T07:22:45.336Z,5.65
2023-06-07T07:25:13.143Z,5.57
2023-06-07T07:27:39.802Z,5.18
2023-06-07T07:30:07.301Z,5.20
2023-06-07T07:32:34.517Z,4.93
2023-06-07T07:35:01.191Z,5.25
2023-06-07T07:37:29.385Z,5.10
2023-06-07T07:39:56.161Z,5.18
2023-06-07T07:42:22.772Z,5.00
2023-06-07T07:44:49.680Z,5.03
2023-06-07T07:47:16.392Z,4.90
2023-06-07T07:49:42.994Z,4.88
2023-06-07T07:52:09.661Z,5.00
2023-06-07T07:54:36.352Z,5.00
2023-06-07T07:57:03.195Z,4.80
2023-06-07T07:59:29.755Z,5.50
2023-06-07T08:01:57.062Z,5.22
2023-06-07T08:04:23.758Z,5.35
2023-06-07T08:06:50.415Z,5.03
2023-06-07T08:09:17.088Z,5.20
2023-06-07T08:11:43.763Z,5.47
2023-06-07T08:14:10.351Z,4.95
2023-06-07T08:16:36.986Z,5.63
2023-06-07T08:19:04.346Z,5.70
2023-06-07T08:21:31.053Z,5.20
2023-06-07T08:23:58.099Z,5.10
2023-06-07T08:26:24.868Z,5.70
2023-06-07T08:28:51.862Z,6.10
2023-06-07T08:31:23.504Z,5.93
2023-06-07T08:33:50.867Z,5.47
2023-06-07T08:36:17.524Z,5.32
2023-06-07T08:38:44.146Z,5.70
2023-06-07T08:41:11.283Z,5.55
2023-06-07T08:43:39.213Z,5.35
2023-06-07T08:46:06.319Z,5.80
2023-06-07T08:48:33.998Z,5.40
2023-06-07T08:51:05.546Z,5.28
2023-06-07T08:53:49.040Z,5.53
2023-06-07T08:56:18.178Z,5.72
2023-06-07T08:58:45.072Z,5.90
2023-06-07T09:01:12.843Z,5.88
2023-06-07T09:03:40.259Z,6.20
2023-06-07T09:06:06.978Z,5.82
2023-06-07T09:08:33.631Z,5.72
2023-06-07T09:11:00.295Z,5.38
2023-06-07T09:13:27.396Z,5.07
2023-06-07T09:15:54.067Z,4.60
2023-06-07T09:18:20.813Z,4.97
2023-06-07T09:20:47.536Z,5.70
2023-06-07T09:23:17.896Z,5.40
2023-06-07T09:25:47.630Z,5.10
2023-06-07T09:28:15.265Z,5.55
2023-06-07T09:30:55.858Z,5.38
2023-06-07T09:33:29.403Z,5.50
2023-06-07T09:36:10.292Z,6.07
2023-06-07T09:38:37.661Z,5.50
2023-06-07T09:41:06.476Z,5.40
2023-06-07T09:43:47.739Z,5.32
2023-06-07T09:46:15.424Z,6.18
2023-06-07T09:48:52.769Z,6.40
2023-06-07T09:51:21.338Z,5.35
2023-06-07T09:53:55.734Z,5.90
2023-06-07T09:56:23.443Z,5.35
2023-06-07T09:59:11.133Z,6.28
2023-06-07T10:01:39.999Z,5.90
2023-06-07T10:04:07.415Z,5.88
2023-06-07T10:06:34.409Z,5.97
2023-06-07T10:09:05.000Z,5.43
2023-06-07T10:11:33.930Z,6.00
2023-06-07T10:14:06.261Z,6.60
2023-06-07T10:16:39.892Z,5.47
2023-06-07T10:19:20.240Z,5.70
2023-06-07T10:21:48.955Z,5.88
2023-06-07T10:24:20.453Z,6.60
2023-06-07T10:26:59.099Z,6.22
2023-06-07T10:29:47.481Z,5.55
2023-06-07T10:32:17.020Z,6.45
2023-06-07T10:34:47.767Z,6.05
2023-06-07T10:37:15.661Z,5.93
2023-06-07T10:39:42.342Z,6.55
2023-06-07T10:42:09.272Z,5.65
2023-06-07T10:44:37.349Z,6.05
2023-06-07T10:47:23.059Z,6.38
2023-06-07T10:49:50.926Z,6.57
2023-06-07T10:52:17.722Z,5.90
2023-06-07T10:54:45.257Z,5.60
2023-06-07T10:57:12.242Z,5.85
2023-06-07T10:59:40.430Z,6.55
2023-06-07T11:02:24.836Z,6.72
2023-06-07T11:04:56.941Z,5.78
2023-06-07T11:07:32.136Z,5.85
2023-06-07T11:10:12.171Z,5.50
2023-06-07T11:12:41.964Z,5.57
2023-06-07T11:15:18.550Z,6.00
2023-06-07T11:17:55.470Z,5.43
2023-06-07T11:20:40.585Z,5.18
2023-06-07T11:23:26.598Z,4.68
2023-06-07T11:26:05.630Z,5.15
2023-06-07T11:28:33.329Z,5.40
2023-06-07T11:31:01.405Z,5.18
2023-06-07T11:33:28.854Z,5.43
2023-06-07T11:35:56.615Z,5.47
2023-06-07T11:38:25.156Z,5.43
2023-06-07T11:40:51.813Z,6.35
2023-06-07T11:43:24.715Z,4.88
2023-06-07T11:45:51.981Z,4.60
2023-06-07T11:48:19.006Z,5.15
2023-06-07T11:50:45.754Z,5.90
2023-06-07T11:53:13.780Z,5.70
2023-06-07T11:55:40.905Z,6.28
2023-06-07T11:58:08.928Z,6.00
2023-06-07T12:00:38.167Z,5.97
2023-06-07T12:03:06.296Z,5.13
2023-06-07T12:05:35.604Z,4.78
2023-06-07T12:08:05.510Z,5.50
2023-06-07T12:10:33.418Z,5.82
2023-06-07T12:13:12.744Z,5.32
2023-06-07T12:15:59.197Z,4.90
2023-06-07T12:18:26.781Z,5.30
2023-06-07T12:21:13.191Z,4.90
2023-06-07T12:23:48.802Z,5.75
2023-06-07T12:26:16.896Z,5.68
2023-06-07T12:28:44.555Z,5.65
2023-06-07T12:31:21.724Z,4.72
2023-06-07T12:33:58.880Z,5.22
2023-06-07T12:36:31.200Z,5.22
2023-06-07T12:39:05.848Z,4.43
2023-06-07T12:41:34.196Z,5.03
2023-06-07T12:44:03.459Z,5.63
2023-06-07T12:46:31.329Z,5.40
2023-06-07T12:48:58.358Z,4.60
2023-06-07T12:51:26.120Z,4.82
2023-06-07T12:53:56.874Z,4.80
2023-06-07T12:56:23.837Z,5.18
2023-06-07T12:58:50.957Z,4.78
2023-06-07T13:01:18.079Z,4.35
2023-06-07T13:03:45.309Z,4.30
2023-06-07T13:06:12.384Z,4.72
2023-06-07T13:08:39.724Z,4.82
2023-06-07T13:11:07.236Z,4.32
2023-06-07T13:13:34.557Z,4.10
2023-06-07T13:16:01.999Z,4.20
2023-06-07T13:18:30.427Z,4.10
2023-06-07T13:20:57.451Z,4.00
2023-06-07T13:23:24.913Z,4.38
2023-06-07T13:25:51.986Z,4.13
2023-06-07T13:28:20.726Z,4.40
2023-06-07T13:30:48.033Z,4.00
2023-06-07T13:33:18.929Z,4.50
2023-06-07T13:35:46.001Z,4.20
2023-06-07T13:38:12.866Z,4.05
2023-06-07T13:40:39.690Z,4.22
2023-06-07T13:43:06.592Z,4.20
2023-06-07T13:45:33.690Z,4.15
2023-06-07T13:48:00.794Z,4.40
2023-06-07T13:50:27.748Z,4.20
2023-06-07T13:52:55.468Z,4.20
2023-06-07T13:55:22.548Z,3.90
2023-06-07T13:57:50.123Z,4.30
2023-06-07T14:00:19.394Z,4.10
2023-06-07T14:02:46.824Z,4.10
2023-06-07T14:05:14.814Z,4.20
2023-06-07T14:07:43.070Z,4.22
2023-06-07T14:10:10.828Z,4.03
2023-06-07T14:12:37.830Z,4.30
2023-06-07T14:15:06.975Z,4.20
2023-06-07T14:17:34.342Z,4.00
2023-06-07T14:20:01.268Z,3.85
2023-06-07T14:22:28.537Z,4.05
2023-06-07T14:24:55.424Z,4.32
2023-06-07T14:27:22.276Z,4.25
2023-06-07T14:29:49.104Z,4.00
2023-06-07T14:32:16.442Z,4.18
2023-06-07T14:34:43.297Z,4.25
2023-06-07T14:37:10.079Z,4.18
2023-06-07T14:39:36.820Z,4.05
2023-06-07T14:42:04.082Z,4.32
2023-06-07T14:44:31.151Z,4.15
2023-06-07T14:46:58.145Z,3.85
2023-06-07T14:49:24.993Z,4.03
2023-06-07T14:51:51.838Z,4.30
2023-06-07T14:54:18.865Z,4.30
2023-06-07T14:56:45.975Z,4.28
2023-06-07T14:59:14.115Z,3.70
2023-06-07T15:01:41.550Z,3.80
2023-06-07T15:04:08.730Z,4.05
2023-06-07T15:06:35.819Z,3.90
2023-06-07T15:09:04.685Z,4.00
2023-06-07T15:11:31.600Z,3.92
2023-06-07T15:13:58.637Z,3.95
2023-06-07T15:16:25.515Z,4.28
2023-06-07T15:18:52.646Z,3.67
2023-06-07T15:21:20.255Z,4.07
2023-06-07T15:23:50.600Z,3.88
2023-06-07T15:26:18.064Z,3.90
2023-06-07T15:28:45.179Z,3.95
2023-06-07T15:31:12.370Z,4.05
2023-06-07T15:33:39.229Z,4.10
2023-06-07T15:36:06.325Z,3.65
2023-06-07T15:38:38.490Z,4.20
2023-06-07T15:41:08.891Z,4.40
2023-06-07T15:43:36.650Z,4.15
2023-06-07T15:46:03.923Z,4.07
2023-06-07T15:48:30.833Z,4.13
2023-06-07T15:50:57.689Z,4.30
2023-06-07T15:53:24.526Z,4.07
2023-06-07T15:55:51.309Z,4.28
2023-06-07T15:58:18.172Z,4.15
2023-06-07T16:00:48.141Z,4.30
2023-06-07T16:03:16.340Z,4.18
2023-06-07T16:05:43.531Z,4.20
2023-06-07T16:08:14.070Z,4.50
2023-06-07T16:10:43.110Z,4.38
2023-06-07T16:13:10.143Z,4.65
2023-06-07T16:15:37.529Z,4.13
2023-06-07T16:18:07.376Z,5.10
2023-06-07T16:20:34.279Z,4.80
2023-06-07T16:23:01.720Z,5.35
2023-06-07T16:25:28.707Z,4.90
2023-06-07T16:27:55.897Z,4.82
2023-06-07T16:30:22.667Z,4.90
2023-06-07T16:32:49.672Z,4.97
2023-06-07T16:35:16.420Z,4.80
2023-06-07T16:37:43.008Z,4.93
2023-06-07T16:40:09.928Z,4.57
2023-06-07T16:42:36.811Z,4.90
2023-06-07T16:45:03.885Z,3.97
2023-06-07T16:47:30.697Z,3.95
2023-06-07T16:49:57.370Z,3.47
2023-06-07T16:52:23.959Z,3.90
2023-06-07T16:54:50.639Z,4.40
2023-06-07T16:57:17.236Z,4.15
2023-06-07T16:59:43.837Z,4.50
2023-06-07T17:02:10.900Z,4.32
2023-06-07T17:04:38.410Z,4.43
2023-06-07T17:07:05.344Z,4.20
2023-06-07T17:09:32.604Z,4.57
2023-06-07T17:11:59.285Z,4.47
2023-06-07T17:14:26.172Z,4.68
2023-06-07T17:16:52.939Z,5.03
2023-06-07T17:19:19.857Z,4.82
2023-06-07T17:21:46.413Z,4.72
2023-06-07T17:24:13.475Z,4.78
2023-06-07T17:26:40.338Z,4.85
2023-06-07T17:29:16.738Z,4.63
2023-06-07T17:31:49.816Z,4.95
2023-06-07T17:34:16.553Z,4.25
2023-06-07T17:36:45.978Z,4.60
2023-06-07T17:39:12.911Z,4.88
2023-06-07T17:41:40.222Z,4.75
2023-06-07T17:44:07.120Z,4.70
2023-06-07T17:46:36.338Z,4.50
2023-06-07T17:49:03.015Z,4.97
2023-06-07T17:51:33.100Z,4.63
2023-06-07T17:54:02.944Z,4.88
2023-06-07T17:56:29.697Z,4.95
2023-06-07T17:58:57.499Z,4.80
2023-06-07T18:01:24.454Z,5.10
2023-06-07T18:03:54.801Z,4.88
2023-06-07T18:06:21.684Z,5.00
2023-06-07T18:08:48.386Z,4.63
2023-06-07T18:11:15.016Z,4.63
2023-06-07T18:13:41.883Z,5.00
2023-06-07T18:16:08.581Z,5.10
2023-06-07T18:18:35.342Z,5.55
2023-06-07T18:21:02.065Z,5.28
2023-06-07T18:23:28.729Z,5.43
2023-06-07T18:25:55.439Z,5.28
2023-06-07T18:28:22.024Z,5.20
2023-06-07T18:30:48.665Z,5.40
2023-06-07T18:33:15.385Z,6.10
2023-06-07T18:35:42.154Z,6.10
2023-06-07T18:38:08.817Z,5.18
2023-06-07T18:40:35.418Z,5.68
2023-06-07T18:43:02.137Z,5.65
2023-06-07T18:45:28.800Z,6.22
2023-06-07T18:47:55.751Z,6.10
2023-06-07T18:50:22.537Z,5.95
2023-06-07T18:52:49.214Z,5.90
2023-06-07T18:55:15.789Z,6.25
2023-06-07T18:57:42.848Z,5.82
2023-06-07T19:00:10.053Z,5.63
2023-06-07T19:02:36.888Z,5.85
2023-06-07T19:05:03.986Z,6.10
2023-06-07T19:07:31.040Z,5.38
2023-06-07T19:09:57.939Z,6.03
2023-06-07T19:12:26.674Z,5.47
2023-06-07T19:14:55.869Z,5.55
2023-06-07T19:17:22.593Z,5.75
2023-06-07T19:19:49.336Z,5.63
2023-06-07T19:22:15.972Z,5.88
2023-06-07T19:24:45.299Z,5.57
2023-06-07T19:27:12.735Z,5.20
2023-06-07T19:29:41.760Z,5.70
2023-06-07T19:32:11.232Z,5.57
2023-06-07T19:34:38.030Z,5.10
2023-06-07T19:37:05.525Z,5.53
2023-06-07T19:39:32.578Z,5.65
2023-06-07T19:42:03.101Z,5.53
2023-06-07T19:44:29.817Z,5.40
2023-06-07T19:46:59.596Z,5.15
2023-06-07T19:49:26.891Z,5.22
2023-06-07T19:51:54.045Z,5.07
2023-06-07T19:54:20.886Z,4.35
2023-06-07T19:56:47.798Z,5.10
2023-06-07T19:59:14.986Z,4.82
2023-06-07T20:01:41.857Z,5.10
2023-06-07T20:04:10.519Z,5.10
2023-06-07T20:06:38.344Z,4.95
2023-06-07T20:09:05.280Z,4.72
2023-06-07T20:11:33.036Z,4.57
2023-06-07T20:13:59.932Z,4.38
2023-06-07T20:16:27.068Z,4.15
2023-06-07T20:18:53.803Z,4.70
2023-06-07T20:21:20.677Z,4.55
2023-06-07T20:23:47.707Z,4.50
2023-06-07T20:26:14.553Z,4.25
2023-06-07T20:28:41.470Z,4.30
2023-06-07T20:31:08.273Z,3.97
2023-06-07T20:33:35.137Z,4.22
2023-06-07T20:36:02.282Z,4.13
2023-06-07T20:38:29.075Z,4.50
2023-06-07T20:40:56.168Z,4.35
2023-06-07T20:43:22.902Z,4.57
2023-06-07T20:45:49.762Z,4.60
2023-06-07T20:48:16.879Z,4.25
2023-06-07T20:50:43.789Z,4.10
2023-06-07T20:53:10.823Z,4.43
2023-06-07T20:55:37.728Z,4.20
2023-06-07T20:58:05.125Z,4.70
2023-06-07T21:00:32.425Z,4.38
2023-06-07T21:02:59.339Z,4.40
2023-06-07T21:05:27.253Z,4.40
2023-06-07T21:07:54.202Z,4.88
2023-06-07T21:10:21.338Z,4.72
2023-06-07T21:12:48.182Z,4.45
2023-06-07T21:15:14.972Z,4.70
2023-06-07T21:17:41.780Z,4.57
2023-06-07T21:20:09.407Z,4.68
2023-06-07T21:22:36.499Z,4.15
2023-06-07T21:25:03.660Z,4.18
2023-06-07T21:27:30.528Z,4.30
2023-06-07T21:29:58.977Z,4.25
2023-06-07T21:32:27.787Z,4.53
2023-06-07T21:34:55.048Z,4.00
2023-06-07T21:37:21.862Z,3.80
2023-06-07T21:39:48.700Z,4.10
2023-06-07T21:42:15.684Z,3.90
2023-06-07T21:44:42.624Z,3.60
2023-06-07T21:47:09.392Z,4.03
2023-06-07T21:49:36.145Z,4.22
2023-06-07T21:52:03.087Z,4.22
2023-06-07T21:54:31.263Z,4.57
2023-06-07T21:56:58.023Z,4.70
2023-06-07T21:59:24.752Z,4.65
2023-06-07T22:01:51.556Z,5.30
2023-06-07T22:04:18.418Z,4.40
2023-06-07T22:06:45.280Z,4.60
2023-06-07T22:09:12.375Z,4.53
2023-06-07T22:11:42.396Z,4.80
2023-06-07T22:14:10.590Z,4.38
2023-06-07T22:16:37.430Z,4.80
2023-06-07T22:19:04.143Z,4.72
2023-06-07T22:21:31.667Z,4.88
2023-06-07T22:23:59.164Z,4.80
2023-06-07T22:26:30.228Z,4.50
2023-06-07T22:29:01.361Z,4.60
2023-06-07T22:31:38.072Z,4.97
2023-06-07T22:34:05.665Z,5.00
2023-06-07T22:36:44.798Z,4.80
2023-06-07T22:39:13.059Z,4.70
2023-06-07T22:41:40.224Z,4.82
2023-06-07T22:44:07.120Z,4.90
2023-06-07T22:46:34.930Z,4.50
2023-06-07T22:49:02.041Z,4.75
2023-06-07T22:51:31.935Z,4.45
2023-06-07T22:53:59.032Z,4.57
2023-06-07T22:56:26.151Z,4.38
2023-06-07T22:58:53.270Z,4.10
2023-06-07T23:01:20.894Z,4.15
2023-06-07T23:03:47.865Z,3.95
2023-06-07T23:06:14.689Z,4.40
2023-06-07T23:08:41.691Z,4.10
2023-06-07T23:11:08.518Z,4.07
2023-06-07T23:13:36.272Z,4.00
2023-06-07T23:16:03.786Z,4.20
2023-06-07T23:18:31.422Z,4.00
2023-06-07T23:20:58.378Z,3.75
2023-06-07T23:23:25.413Z,3.88
2023-06-07T23:25:52.410Z,4.05
2023-06-07T23:28:19.220Z,4.10
2023-06-07T23:30:46.153Z,4.28
2023-06-07T23:33:13.128Z,4.30
2023-06-07T23:35:42.121Z,4.25
2023-06-07T23:38:08.961Z,4.13
2023-06-07T23:40:36.085Z,4.22
2023-06-07T23:43:05.304Z,4.38
2023-06-07T23:45:32.352Z,4.57
2023-06-07T23:48:00.209Z,4.25
2023-06-07T23:50:27.230Z,4.18
2023-06-07T23:52:54.293Z,4.35
2023-06-07T23:55:21.125Z,4.22
2023-06-07T23:57:48.118Z,4.30
